PAEI METAR and TAF weather

Enter ICAO airport designator
Station Type Date Time Source
PAEI METAR 2019/08/17 10:56 UTC NOAA

PAEI 171056Z AUTO 27007KT 10SM BKN026 BKN050 OVC085 08/06 A3031 RMK AO2 CIG 026V050 BKN026 V SCT SLP270 T00760062 $


Station Type Date Time Source
PAEI Decoded METAR 2019/08/17 10:56 UTC NOAA

Station name not available
Aug 17, 2019 - 06:56 AM EDT / 2019.08.17 1056 UTC
Wind: from the W (270 degrees) at 8 MPH (7 KT):0
Visibility: 10 mile(s):0
Sky conditions: overcast
Temperature: 45.7 F (7.6 C)
Dew Point: 43.2 F (6.2 C)
Relative Humidity: 90%
Pressure (altimeter): 30.31 in. Hg (1026 hPa)
ob: PAEI 171056Z AUTO 27007KT 10SM BKN026 BKN050 OVC085 08/06 A3031 RMK AO2 CIG 026V050 BKN026 V SCT SLP270 T00760062
cycle: 11

Station Type Date Time Source
PAEI TAF 2019/08/17 08:54 UTC NOAA

TAF TAF
AMD PAEI 170840Z 1708/1810 28009KT 9999 SCT009 BKN060 620703 QNH3011INS
TEMPO 1708/1711 8000 -RA BKN009
BECMG 1711/1712 VRB06KT 2400 BR SCT003 BKN030 QNH3016INS
BECMG 1716/1717 01009KT 9999 NSW BKN040 QNH3030INS
BECMG 1802/1803 01006KT 9999 BKN060 QNH3035INS TX14/1804Z TN09/1712Z

Example: see airport list